Chiang Mai, Thailand

11:44 AM +07 on Januari 22, 2019 (GMT +0700)
Mae Ta, Mae Ta, Chiang Mai 50130, Thailand | | Change Station

Elev 1532 ft 18.59 °N, 99.26 °E | Updated 18 seconds ago

Växlande molnighet
Växlande molnighet
78.8 °F
Feels Like 81 °F
N
0
Vind Växlande Vind from SV
Gusts 0.0 miles/tim

Idag
High -- | Low -- °F
--% Chance of Precip.
Yesterday
High -- | Low -- °F
Precip. -- tum
Lufttryck 30.09 tum
Sikt 6.2 miles
Molnigt Few 3500 ft
Värmeindex 81 °F
Daggpunkt 64 °F
Luftfuktighet 61%
Rainfall 0.00 tum
Snow Depth Not available.
6:57 AM 6:09 PM
Fullmåne, 99% visible
METAR VTCC 220430Z 18003KT 9999 FEW035 26/15 Q1019 NOSIG
Lufttryck 30.09 tum
Sikt 6.2 miles
Molnigt Few 3500 ft
Värmeindex 81 °F
Daggpunkt 64 °F
Luftfuktighet 61%
Rainfall 0.00 tum
Snow Depth Not available.
6:57 AM 6:09 PM
Fullmåne, 99% visible
METAR VTCC 220430Z 18003KT 9999 FEW035 26/15 Q1019 NOSIG

Get Severe Weather Alerts

Thanks for signing up!

Be on the lookout for a verification email in your inbox.

You'll start receiving the daily forecast at 6 AM.

×

10-Day Weather Forecast

No radar image for this location.
×

Almanac

Astronomi

Jan. 22, 2019 Rise Set
Actual Time
Civil Twilight
Nautical Twilight
Astronomical Twilight
Månen
Length Of Visible Light
Dagens längd
Tomorrow will be .
, % of the Moon is Illuminated

Today's Extremes

Country Highs Country Lows

Community

WunderPhotos

Category 6

Welcome to Category 6. This is the collective home for Weather Underground's featured writeups by Dr. Jeff Masters (right), Bob Henson (left), Chris Burt, and other regular contributors.

Nearby

Air Quality

  Air Quality AQ Index Pollutant
Not available.

Snödjup

Station Depth Elevation

Earthquake Activity

Stad Distance Mag. Time & Date
Minimum magnitude displayed is 2.5.

Coastal Water Temperatures

Plats Temperatur

Stations

Nearby Weather Stations

Station Location Temp Vindavkylning Daggpunkt Luftfuktighet Vind Precip. Elev Uppdaterad Type